createdAt,value
2023-05-19T00:02:05.597Z,8.85
2023-05-19T00:04:33.578Z,8.88
2023-05-19T00:07:01.917Z,8.90
2023-05-19T00:09:28.849Z,8.87
2023-05-19T00:11:56.816Z,8.88
2023-05-19T00:14:23.710Z,8.84
2023-05-19T00:16:50.843Z,8.77
2023-05-19T00:19:17.759Z,8.71
2023-05-19T00:21:47.707Z,8.66
2023-05-19T00:24:14.431Z,8.64
2023-05-19T00:26:41.011Z,8.66
2023-05-19T00:29:07.553Z,8.63
2023-05-19T00:31:34.545Z,8.64
2023-05-19T00:34:01.519Z,8.58
2023-05-19T00:36:28.422Z,8.59
2023-05-19T00:38:55.101Z,8.57
2023-05-19T00:41:22.740Z,8.47
2023-05-19T00:43:50.737Z,8.41
2023-05-19T00:46:19.201Z,8.41
2023-05-19T00:48:46.054Z,8.27
2023-05-19T00:51:17.144Z,8.30
2023-05-19T00:53:49.103Z,8.28
2023-05-19T00:56:17.031Z,8.27
2023-05-19T00:58:44.450Z,8.21
2023-05-19T01:01:12.314Z,8.12
2023-05-19T01:03:40.797Z,8.10
2023-05-19T01:06:08.089Z,8.06
2023-05-19T01:08:37.553Z,8.00
2023-05-19T01:11:08.324Z,7.99
2023-05-19T01:13:36.521Z,7.91
2023-05-19T01:16:30.870Z,7.82
2023-05-19T01:19:03.951Z,7.82
2023-05-19T01:21:56.776Z,7.78
2023-05-19T01:24:45.364Z,7.77
2023-05-19T01:27:32.466Z,7.71
2023-05-19T01:30:30.817Z,7.67
2023-05-19T01:33:02.642Z,7.64
2023-05-19T01:35:30.793Z,7.59
2023-05-19T01:37:59.327Z,7.60
2023-05-19T01:40:28.286Z,7.60
2023-05-19T01:42:58.164Z,7.59
2023-05-19T01:45:26.109Z,7.56
2023-05-19T01:47:56.129Z,7.56
2023-05-19T01:50:22.812Z,7.54
2023-05-19T01:52:49.669Z,7.58
2023-05-19T01:55:16.452Z,7.55
2023-05-19T01:57:55.617Z,7.51
2023-05-19T02:00:39.194Z,7.54
2023-05-19T02:03:21.044Z,7.50
2023-05-19T02:06:03.824Z,7.48
2023-05-19T02:08:55.319Z,7.50
2023-05-19T02:11:31.418Z,7.48
2023-05-19T02:14:02.894Z,7.48
2023-05-19T02:16:29.667Z,7.36
2023-05-19T02:18:57.320Z,7.36
2023-05-19T02:21:23.917Z,7.34
2023-05-19T02:23:50.732Z,7.33
2023-05-19T02:26:17.422Z,7.32
2023-05-19T02:28:43.998Z,7.34
2023-05-19T02:31:10.567Z,7.33
2023-05-19T02:33:37.601Z,7.29
2023-05-19T02:36:04.637Z,7.27
2023-05-19T02:38:31.674Z,7.19
2023-05-19T02:40:58.682Z,7.21
2023-05-19T02:43:25.460Z,7.21
2023-05-19T02:45:52.030Z,7.16
2023-05-19T02:48:18.649Z,7.20
2023-05-19T02:50:45.298Z,7.15
2023-05-19T02:53:11.936Z,7.13
2023-05-19T02:55:38.585Z,7.12
2023-05-19T02:58:05.356Z,6.99
2023-05-19T03:00:32.265Z,7.02
2023-05-19T03:03:02.695Z,6.97
2023-05-19T03:05:30.444Z,6.86
2023-05-19T03:07:57.084Z,6.88
2023-05-19T03:10:23.710Z,6.93
2023-05-19T03:12:50.992Z,6.94
2023-05-19T03:15:18.822Z,6.92
2023-05-19T03:17:45.762Z,6.94
2023-05-19T03:20:13.047Z,6.91
2023-05-19T03:22:39.722Z,6.90
2023-05-19T03:25:06.670Z,6.90
2023-05-19T03:27:33.251Z,6.87
2023-05-19T03:29:59.858Z,6.85
2023-05-19T03:32:26.765Z,6.81
2023-05-19T03:34:53.453Z,6.81
2023-05-19T03:37:20.074Z,6.78
2023-05-19T03:39:46.719Z,6.75
2023-05-19T03:42:13.428Z,6.74
2023-05-19T03:44:40.113Z,6.68
2023-05-19T03:47:06.922Z,6.67
2023-05-19T03:49:33.621Z,6.57
2023-05-19T03:52:00.253Z,6.62
2023-05-19T03:54:27.524Z,6.57
2023-05-19T03:56:54.405Z,6.46
2023-05-19T03:59:21.114Z,6.51
2023-05-19T04:01:47.786Z,6.51
2023-05-19T04:04:14.408Z,6.51
2023-05-19T04:06:41.093Z,6.51
2023-05-19T04:09:14.857Z,6.52
2023-05-19T04:11:42.873Z,6.50
2023-05-19T04:14:11.853Z,6.53
2023-05-19T04:16:38.722Z,6.48
2023-05-19T04:19:05.822Z,6.50
2023-05-19T04:21:32.532Z,6.50
2023-05-19T04:24:00.150Z,6.48
2023-05-19T04:26:31.029Z,6.50
2023-05-19T04:28:57.834Z,6.52
2023-05-19T04:31:24.778Z,6.52
2023-05-19T04:33:53.501Z,6.51
2023-05-19T04:36:21.748Z,6.57
2023-05-19T04:38:48.551Z,6.55
2023-05-19T04:41:16.500Z,6.57
2023-05-19T04:43:44.767Z,6.59
2023-05-19T04:46:13.725Z,6.59
2023-05-19T04:48:41.191Z,6.63
2023-05-19T04:51:07.994Z,6.69
2023-05-19T04:53:34.926Z,6.73
2023-05-19T04:56:02.133Z,6.77
2023-05-19T04:58:28.686Z,6.82
2023-05-19T05:00:58.732Z,6.89
2023-05-19T05:03:26.432Z,6.93
2023-05-19T05:05:53.398Z,6.97
2023-05-19T05:08:23.434Z,7.00
2023-05-19T05:10:52.524Z,7.09
2023-05-19T05:13:22.796Z,7.19
2023-05-19T05:15:49.851Z,7.31
2023-05-19T05:18:16.765Z,7.41
2023-05-19T05:20:44.189Z,7.53
2023-05-19T05:23:14.649Z,7.56
2023-05-19T05:25:42.376Z,7.81
2023-05-19T05:28:09.034Z,8.03
2023-05-19T05:30:35.797Z,8.19
2023-05-19T05:33:02.584Z,8.32
2023-05-19T05:35:29.413Z,8.50
2023-05-19T05:37:56.531Z,8.64
2023-05-19T05:40:23.246Z,8.78
2023-05-19T05:42:49.996Z,8.99
2023-05-19T05:45:16.949Z,9.22
2023-05-19T05:47:43.818Z,9.37
2023-05-19T05:50:11.078Z,9.54
2023-05-19T05:52:39.405Z,9.74
2023-05-19T05:55:06.920Z,9.92
2023-05-19T05:57:35.414Z,10.10
2023-05-19T06:00:02.429Z,10.22
2023-05-19T06:02:29.984Z,10.36
2023-05-19T06:04:56.995Z,10.46
2023-05-19T06:07:24.476Z,10.58
2023-05-19T06:09:51.238Z,10.65
2023-05-19T06:12:18.100Z,10.66
2023-05-19T06:14:44.759Z,10.75
2023-05-19T06:17:11.447Z,10.77
2023-05-19T06:19:38.051Z,10.82
2023-05-19T06:22:04.744Z,10.94
2023-05-19T06:24:31.372Z,11.00
2023-05-19T06:26:57.993Z,11.14
2023-05-19T06:29:24.639Z,11.17
2023-05-19T06:31:51.579Z,11.30
2023-05-19T06:34:18.412Z,11.48
2023-05-19T06:36:45.184Z,11.58
2023-05-19T06:39:11.893Z,11.64
2023-05-19T06:41:38.610Z,11.81
2023-05-19T06:44:07.979Z,11.99
2023-05-19T06:46:34.898Z,12.20
2023-05-19T06:49:01.736Z,12.43
2023-05-19T06:51:28.660Z,12.36
2023-05-19T06:53:55.617Z,12.29
2023-05-19T06:56:22.969Z,12.37
2023-05-19T06:58:49.902Z,12.33
2023-05-19T07:01:16.655Z,12.55
2023-05-19T07:03:43.406Z,12.88
2023-05-19T07:06:10.208Z,13.31
2023-05-19T07:08:37.309Z,13.26
2023-05-19T07:11:04.235Z,13.57
2023-05-19T07:13:32.901Z,13.93
2023-05-19T07:15:59.536Z,14.44
2023-05-19T07:18:26.248Z,14.69
2023-05-19T07:20:53.798Z,14.83
2023-05-19T07:23:20.560Z,14.75
2023-05-19T07:25:47.214Z,15.04
2023-05-19T07:28:13.907Z,15.19
2023-05-19T07:30:40.901Z,15.26
2023-05-19T07:33:08.394Z,15.04
2023-05-19T07:35:35.166Z,15.39
2023-05-19T07:38:02.330Z,15.72
2023-05-19T07:40:28.992Z,15.85
2023-05-19T07:42:55.861Z,16.19
2023-05-19T07:45:22.621Z,16.42
2023-05-19T07:47:49.467Z,16.72
2023-05-19T07:50:16.478Z,16.62
2023-05-19T07:52:43.112Z,16.66
2023-05-19T07:55:09.735Z,16.23
2023-05-19T07:57:36.562Z,15.88
2023-05-19T08:00:07.756Z,15.99
2023-05-19T08:02:34.467Z,15.89
2023-05-19T08:05:01.290Z,15.58
2023-05-19T08:07:27.868Z,15.75
2023-05-19T08:09:54.467Z,15.57
2023-05-19T08:12:21.094Z,15.73
2023-05-19T08:14:47.696Z,16.38
2023-05-19T08:17:14.352Z,16.86
2023-05-19T08:19:41.005Z,17.29
2023-05-19T08:22:07.617Z,17.53
2023-05-19T08:24:34.522Z,17.83
2023-05-19T08:27:01.441Z,18.43
2023-05-19T08:29:28.070Z,18.70
2023-05-19T08:31:54.764Z,19.18
2023-05-19T08:34:22.340Z,19.42
2023-05-19T08:36:49.016Z,18.78
2023-05-19T08:39:17.656Z,18.50
2023-05-19T08:41:44.581Z,18.31
2023-05-19T08:44:11.647Z,18.43
2023-05-19T08:46:38.495Z,19.16
2023-05-19T08:49:13.064Z,19.73
2023-05-19T08:52:37.980Z,20.43
2023-05-19T08:55:09.833Z,20.22
2023-05-19T08:57:38.304Z,19.48
2023-05-19T09:00:11.854Z,18.93
2023-05-19T09:02:50.429Z,19.65
2023-05-19T09:05:26.819Z,20.40
2023-05-19T09:07:53.469Z,20.23
2023-05-19T09:10:20.103Z,20.55
2023-05-19T09:12:47.869Z,20.75
2023-05-19T09:15:18.790Z,20.28
2023-05-19T09:17:45.941Z,19.90
2023-05-19T09:20:13.091Z,20.40
2023-05-19T09:22:45.307Z,20.54
2023-05-19T09:25:22.660Z,20.60
2023-05-19T09:27:50.150Z,20.56
2023-05-19T09:30:17.971Z,19.95
2023-05-19T09:32:49.390Z,19.13
2023-05-19T09:35:20.784Z,18.82
2023-05-19T09:37:47.450Z,19.23
2023-05-19T09:40:16.061Z,19.50
2023-05-19T09:42:44.155Z,19.30
2023-05-19T09:45:11.370Z,19.35
2023-05-19T09:47:42.052Z,20.13
2023-05-19T09:50:10.822Z,20.44
2023-05-19T09:52:39.680Z,20.61
2023-05-19T09:55:09.962Z,21.35
2023-05-19T09:57:40.826Z,21.24
2023-05-19T10:00:20.813Z,20.80
2023-05-19T10:02:50.320Z,21.11
2023-05-19T10:05:20.260Z,22.37
2023-05-19T10:07:54.662Z,22.26
2023-05-19T10:12:49.827Z,21.74
2023-05-19T10:15:17.957Z,21.78
2023-05-19T10:17:45.647Z,22.22
2023-05-19T10:20:14.424Z,21.72
2023-05-19T10:22:42.754Z,21.87
2023-05-19T10:25:11.243Z,22.25
2023-05-19T10:27:44.189Z,22.98
2023-05-19T10:30:24.083Z,22.71
2023-05-19T10:32:52.069Z,22.56
2023-05-19T10:35:54.196Z,21.81
2023-05-19T10:38:48.353Z,21.53
2023-05-19T10:41:53.766Z,21.65
2023-05-19T10:44:35.088Z,21.74
2023-05-19T10:47:01.876Z,21.29
2023-05-19T10:49:28.917Z,20.55
2023-05-19T10:51:58.889Z,21.07
2023-05-19T10:54:47.359Z,20.83
2023-05-19T10:57:33.318Z,20.96
2023-05-19T11:00:11.243Z,22.12
2023-05-19T11:02:41.819Z,22.02
2023-05-19T11:05:13.101Z,23.15
2023-05-19T11:07:43.513Z,23.31
2023-05-19T11:10:11.355Z,23.87
2023-05-19T11:12:46.148Z,23.82
2023-05-19T11:15:15.001Z,23.47
2023-05-19T11:17:43.128Z,22.67
2023-05-19T11:20:26.958Z,22.65
2023-05-19T11:23:18.057Z,22.33
2023-05-19T11:25:49.628Z,22.43
2023-05-19T11:28:19.526Z,22.35
2023-05-19T11:30:50.822Z,22.81
2023-05-19T11:33:21.007Z,22.75
2023-05-19T11:35:49.909Z,23.39
2023-05-19T11:38:20.933Z,23.03
2023-05-19T11:40:49.891Z,22.86
2023-05-19T11:43:16.752Z,23.56
2023-05-19T11:45:43.840Z,23.39
2023-05-19T11:48:15.959Z,23.44
2023-05-19T11:50:44.102Z,22.12
2023-05-19T11:53:14.318Z,22.13
2023-05-19T11:55:48.236Z,22.00
2023-05-19T11:58:15.902Z,22.79
2023-05-19T12:00:46.066Z,23.42
2023-05-19T12:03:13.365Z,22.28
2023-05-19T12:05:45.365Z,23.09
2023-05-19T12:08:12.751Z,23.31
2023-05-19T12:10:40.068Z,24.15
2023-05-19T12:13:10.705Z,24.73
2023-05-19T12:15:38.049Z,24.67
2023-05-19T12:18:05.050Z,24.04
2023-05-19T12:20:32.710Z,23.44
2023-05-19T12:23:01.146Z,24.20
2023-05-19T12:25:29.314Z,23.01
2023-05-19T12:28:03.250Z,23.46
2023-05-19T12:30:31.291Z,23.23
2023-05-19T12:32:58.911Z,24.01
2023-05-19T12:35:32.165Z,24.60
2023-05-19T12:38:03.633Z,24.84
2023-05-19T12:40:30.513Z,23.39
2023-05-19T12:42:59.354Z,23.10
2023-05-19T12:45:28.257Z,23.71
2023-05-19T12:47:55.430Z,23.63
2023-05-19T12:50:22.185Z,23.26
2023-05-19T12:52:53.310Z,22.36
2023-05-19T12:55:21.036Z,22.35
2023-05-19T12:57:54.785Z,21.46
2023-05-19T13:00:25.649Z,21.84
2023-05-19T13:03:05.435Z,21.13
2023-05-19T13:05:38.412Z,21.04
2023-05-19T13:08:10.427Z,22.02
2023-05-19T13:10:39.103Z,22.59
2023-05-19T13:13:06.806Z,23.07
2023-05-19T13:15:35.422Z,22.21
2023-05-19T13:18:07.381Z,22.17
2023-05-19T13:20:35.305Z,22.07
2023-05-19T13:23:02.574Z,22.45
2023-05-19T13:25:29.422Z,22.52
2023-05-19T13:27:56.787Z,22.16
2023-05-19T13:30:24.121Z,21.78
2023-05-19T13:32:52.546Z,21.20
2023-05-19T13:35:19.803Z,20.68
2023-05-19T13:37:46.507Z,21.18
2023-05-19T13:40:13.546Z,21.83
2023-05-19T13:42:40.963Z,22.30
2023-05-19T13:45:08.305Z,22.16
2023-05-19T13:47:35.010Z,21.80
2023-05-19T13:50:03.036Z,21.89
2023-05-19T13:52:30.467Z,22.31
2023-05-19T13:54:57.646Z,21.97
2023-05-19T13:57:25.549Z,21.51
2023-05-19T14:00:01.677Z,21.67
2023-05-19T14:02:30.107Z,21.91
2023-05-19T14:04:57.641Z,21.89
2023-05-19T14:07:24.414Z,21.38
2023-05-19T14:09:52.458Z,20.95
2023-05-19T14:12:21.555Z,21.20
2023-05-19T14:14:50.203Z,21.60
2023-05-19T14:17:16.967Z,21.54
2023-05-19T14:19:43.646Z,21.46
2023-05-19T14:22:10.406Z,20.99
2023-05-19T14:24:37.263Z,20.95
2023-05-19T14:27:04.121Z,20.73
2023-05-19T14:29:34.045Z,20.48
2023-05-19T14:32:01.140Z,20.63
2023-05-19T14:34:28.583Z,20.93
2023-05-19T14:36:55.315Z,20.81
2023-05-19T14:39:22.379Z,20.64
2023-05-19T14:41:51.023Z,20.45
2023-05-19T14:44:17.624Z,20.70
2023-05-19T14:46:44.972Z,20.69
2023-05-19T14:49:11.786Z,20.66
2023-05-19T14:51:38.483Z,20.70
2023-05-19T14:54:05.092Z,20.88
2023-05-19T14:56:31.796Z,20.57
2023-05-19T14:58:58.991Z,20.67
2023-05-19T15:01:25.947Z,20.63
2023-05-19T15:03:52.950Z,20.40
2023-05-19T15:06:19.909Z,20.63
2023-05-19T15:08:46.636Z,20.70
2023-05-19T15:11:14.133Z,19.90
2023-05-19T15:13:40.790Z,19.42
2023-05-19T15:16:17.572Z,19.68
2023-05-19T15:18:45.030Z,19.89
2023-05-19T15:21:11.825Z,19.73
2023-05-19T15:23:38.473Z,19.64
2023-05-19T15:26:05.772Z,19.63
2023-05-19T15:28:33.576Z,19.45
2023-05-19T15:31:00.253Z,19.65
2023-05-19T15:33:27.006Z,19.67
2023-05-19T15:35:54.275Z,19.64
2023-05-19T15:38:20.930Z,19.63
2023-05-19T15:40:47.858Z,19.28
2023-05-19T15:43:14.582Z,19.41
2023-05-19T15:45:41.262Z,19.43
2023-05-19T15:48:08.523Z,19.33
2023-05-19T15:50:36.053Z,19.39
2023-05-19T15:53:03.091Z,19.28
2023-05-19T15:55:29.824Z,19.55
2023-05-19T15:57:56.469Z,19.43
2023-05-19T16:00:23.825Z,19.45
2023-05-19T16:02:50.713Z,18.91
2023-05-19T16:05:17.872Z,18.73
2023-05-19T16:07:45.053Z,18.81
2023-05-19T16:10:11.748Z,18.75
2023-05-19T16:12:38.328Z,18.53
2023-05-19T16:15:05.376Z,18.40
2023-05-19T16:17:32.153Z,18.39
2023-05-19T16:19:58.829Z,18.23
2023-05-19T16:22:25.555Z,18.06
2023-05-19T16:24:52.401Z,18.09
2023-05-19T16:27:19.378Z,18.07
2023-05-19T16:29:46.013Z,17.97
2023-05-19T16:32:13.076Z,18.02
2023-05-19T16:34:39.824Z,17.81
2023-05-19T16:37:06.468Z,17.57
2023-05-19T16:39:33.151Z,17.69
2023-05-19T16:41:59.804Z,17.65
2023-05-19T16:44:26.611Z,17.61
2023-05-19T16:46:53.282Z,17.66
2023-05-19T16:49:19.951Z,17.56
2023-05-19T16:51:48.801Z,17.62
2023-05-19T16:54:15.670Z,17.67
2023-05-19T16:56:42.389Z,17.56
2023-05-19T16:59:09.384Z,17.66
2023-05-19T17:01:36.151Z,17.62
2023-05-19T17:04:03.054Z,17.53
2023-05-19T17:06:29.693Z,17.53
2023-05-19T17:08:56.352Z,17.49
2023-05-19T17:11:23.025Z,17.34
2023-05-19T17:13:49.667Z,17.19
2023-05-19T17:16:16.444Z,17.29
2023-05-19T17:18:43.911Z,17.25
2023-05-19T17:21:10.724Z,17.13
2023-05-19T17:23:38.291Z,17.05
2023-05-19T17:26:05.207Z,17.05
2023-05-19T17:28:32.404Z,17.05
2023-05-19T17:30:59.222Z,17.05
2023-05-19T17:33:25.953Z,17.01
2023-05-19T17:35:52.690Z,16.92
2023-05-19T17:38:19.330Z,16.85
2023-05-19T17:40:47.516Z,16.81
2023-05-19T17:43:14.116Z,16.75
2023-05-19T17:45:41.101Z,16.78
2023-05-19T17:48:07.823Z,16.76
2023-05-19T17:50:34.679Z,16.75
2023-05-19T17:53:01.732Z,16.75
2023-05-19T17:55:30.998Z,16.75
2023-05-19T17:57:57.963Z,16.77
2023-05-19T18:00:25.359Z,16.72
2023-05-19T18:02:52.898Z,16.79
2023-05-19T18:05:20.120Z,16.74
2023-05-19T18:07:48.079Z,16.81
2023-05-19T18:10:16.856Z,16.73
2023-05-19T18:12:43.466Z,16.74
2023-05-19T18:15:10.621Z,16.78
2023-05-19T18:17:37.276Z,16.72
2023-05-19T18:20:04.173Z,16.69
2023-05-19T18:22:30.885Z,16.73
2023-05-19T18:24:57.691Z,16.71
2023-05-19T18:27:24.319Z,16.68
2023-05-19T18:29:51.363Z,16.65
2023-05-19T18:32:17.995Z,16.63
2023-05-19T18:34:44.644Z,16.64
2023-05-19T18:37:11.343Z,16.61
2023-05-19T18:39:38.082Z,16.59
2023-05-19T18:42:04.847Z,16.57
2023-05-19T18:44:31.784Z,16.54
2023-05-19T18:46:58.386Z,16.54
2023-05-19T18:49:25.184Z,16.52
2023-05-19T18:51:52.191Z,16.49
2023-05-19T18:54:20.374Z,16.47
2023-05-19T18:56:47.110Z,16.42
2023-05-19T18:59:13.781Z,16.41
2023-05-19T19:01:40.611Z,16.36
2023-05-19T19:04:07.393Z,16.35
2023-05-19T19:06:34.185Z,16.32
2023-05-19T19:09:00.776Z,16.28
2023-05-19T19:11:27.425Z,16.25
2023-05-19T19:13:55.988Z,16.19
2023-05-19T19:16:22.760Z,16.15
2023-05-19T19:18:49.559Z,16.12
2023-05-19T19:21:16.301Z,16.06
2023-05-19T19:23:42.958Z,15.97
2023-05-19T19:26:09.730Z,15.91
2023-05-19T19:28:37.065Z,15.86
2023-05-19T19:31:03.703Z,15.85
2023-05-19T19:33:30.326Z,15.84
2023-05-19T19:35:57.267Z,15.83
2023-05-19T19:38:23.891Z,15.75
2023-05-19T19:40:53.472Z,15.74
2023-05-19T19:43:20.225Z,15.66
2023-05-19T19:45:46.899Z,15.60
2023-05-19T19:48:13.520Z,15.53
2023-05-19T19:50:40.209Z,15.50
2023-05-19T19:53:08.787Z,15.50
2023-05-19T19:55:35.560Z,15.43
2023-05-19T19:58:02.529Z,15.38
2023-05-19T20:00:29.204Z,15.36
2023-05-19T20:03:04.929Z,15.31
2023-05-19T20:05:32.733Z,15.30
2023-05-19T20:07:59.445Z,15.29
2023-05-19T20:10:26.313Z,15.25
2023-05-19T20:12:53.033Z,15.20
2023-05-19T20:15:19.653Z,15.14
2023-05-19T20:17:46.566Z,15.10
2023-05-19T20:20:13.571Z,15.07
2023-05-19T20:22:40.367Z,15.05
2023-05-19T20:25:07.392Z,15.06
2023-05-19T20:27:34.305Z,15.05
2023-05-19T20:30:00.926Z,15.03
2023-05-19T20:32:27.614Z,15.00
2023-05-19T20:34:54.286Z,14.99
2023-05-19T20:37:22.161Z,14.98
2023-05-19T20:39:48.822Z,15.00
2023-05-19T20:42:15.729Z,14.97
2023-05-19T20:44:42.559Z,14.97
2023-05-19T20:47:09.224Z,14.91
2023-05-19T20:49:36.071Z,14.89
2023-05-19T20:52:02.713Z,14.86
2023-05-19T20:54:29.357Z,14.83
2023-05-19T20:56:56.077Z,14.80
2023-05-19T20:59:22.688Z,14.81
2023-05-19T21:01:49.423Z,14.76
2023-05-19T21:04:16.216Z,14.75
2023-05-19T21:06:42.870Z,14.69
2023-05-19T21:09:10.713Z,14.64
2023-05-19T21:11:37.530Z,14.56
2023-05-19T21:14:04.375Z,14.41
2023-05-19T21:16:31.523Z,14.40
2023-05-19T21:18:58.389Z,14.41
2023-05-19T21:21:25.129Z,14.41
2023-05-19T21:23:52.025Z,14.45
2023-05-19T21:26:18.794Z,14.46
2023-05-19T21:28:45.569Z,14.44
2023-05-19T21:31:12.445Z,14.33
2023-05-19T21:33:39.201Z,14.36
2023-05-19T21:36:06.025Z,14.34
2023-05-19T21:38:32.629Z,14.37
2023-05-19T21:40:59.551Z,14.34
2023-05-19T21:43:26.428Z,14.20
2023-05-19T21:45:53.043Z,14.27
2023-05-19T21:48:19.936Z,14.28
2023-05-19T21:50:46.580Z,14.18
2023-05-19T21:53:13.190Z,14.18
2023-05-19T21:55:39.984Z,14.13
2023-05-19T21:58:06.620Z,14.14
2023-05-19T22:00:33.495Z,14.10
2023-05-19T22:03:00.599Z,14.07
2023-05-19T22:05:30.064Z,14.07
2023-05-19T22:07:56.779Z,14.10
2023-05-19T22:10:23.536Z,14.03
2023-05-19T22:12:50.280Z,14.01
2023-05-19T22:15:16.958Z,14.04
2023-05-19T22:17:43.797Z,14.02
2023-05-19T22:20:10.952Z,14.00
2023-05-19T22:22:37.601Z,14.03
2023-05-19T22:25:04.793Z,13.99
2023-05-19T22:27:31.554Z,14.02
2023-05-19T22:29:59.695Z,14.03
2023-05-19T22:32:26.508Z,13.96
2023-05-19T22:34:53.273Z,13.94
2023-05-19T22:37:21.380Z,13.91
2023-05-19T22:39:48.012Z,13.96
2023-05-19T22:42:14.719Z,13.96
2023-05-19T22:44:41.316Z,13.90
2023-05-19T22:47:13.345Z,13.92
2023-05-19T22:49:40.902Z,13.88
2023-05-19T22:52:10.038Z,13.83
2023-05-19T22:54:37.121Z,13.79
2023-05-19T22:57:04.324Z,13.74
2023-05-19T22:59:30.980Z,13.74
2023-05-19T23:01:57.639Z,13.69
2023-05-19T23:04:24.362Z,13.68
2023-05-19T23:06:51.284Z,13.65
2023-05-19T23:09:18.103Z,13.71
2023-05-19T23:11:45.183Z,13.73
2023-05-19T23:14:11.854Z,13.67
2023-05-19T23:16:38.757Z,13.65
2023-05-19T23:19:05.590Z,13.63
2023-05-19T23:21:32.524Z,13.59
2023-05-19T23:23:59.598Z,13.53
2023-05-19T23:26:26.921Z,13.57
2023-05-19T23:28:53.663Z,13.54
2023-05-19T23:31:20.350Z,13.48
2023-05-19T23:33:47.017Z,13.47
2023-05-19T23:36:14.086Z,13.40
2023-05-19T23:38:40.849Z,13.45
2023-05-19T23:41:07.682Z,13.41
2023-05-19T23:43:34.387Z,13.43
2023-05-19T23:46:01.277Z,13.42
2023-05-19T23:48:31.507Z,13.40
2023-05-19T23:50:58.689Z,13.38
2023-05-19T23:53:25.826Z,13.37
2023-05-19T23:55:52.539Z,13.42
2023-05-19T23:58:19.302Z,13.37
